Time;durP1;ratioP1;P1;durP2;ratioP2;P2;SDS_P1;SDS_P2;PMS_P1;PMS_P2;Temp;Humidity;BMP_temperature;BMP_pressure;BME280_temperature;BME280_humidity;BME280_pressure;Samples;Min_cycle;Max_cycle;Signal;HPM_P1;HPM_P2
2023/07/16 06:16:15;;;;;;;0.82;0.82;;;16.90;99.90;;;;;;5245151;22;20226;-70
2023/07/16 06:18:42;;;;;;;0.50;0.50;;;17.10;99.90;;;;;;5016737;28;20214;-70
2023/07/16 06:21:08;;;;;;;0.60;0.60;;;17.40;99.90;;;;;;5016486;28;20213;-71
2023/07/16 06:23:35;;;;;;;0.60;0.60;;;17.60;99.90;;;;;;5016451;28;20198;-70
2023/07/16 06:26:02;;;;;;;0.70;0.70;;;17.70;99.90;;;;;;5016339;28;20222;-69
2023/07/16 06:28:29;;;;;;;0.60;0.60;;;17.70;99.90;;;;;;5016009;28;20607;-69
2023/07/16 06:30:56;;;;;;;0.60;0.60;;;17.60;99.90;;;;;;5016705;28;20233;-69
2023/07/16 06:33:25;;;;;;;0.60;0.60;;;17.60;99.90;;;;;;5016389;28;20208;-69
2023/07/16 06:35:52;;;;;;;0.70;0.70;;;17.40;99.90;;;;;;5016186;28;20253;-69
2023/07/16 06:38:18;;;;;;;0.75;0.75;;;17.50;99.90;;;;;;5016235;28;20209;-69
2023/07/16 06:40:49;;;;;;;0.68;0.68;;;17.80;99.90;;;;;;5015930;28;20665;-69
2023/07/16 06:43:15;;;;;;;0.70;0.70;;;18.20;99.90;;;;;;5016494;28;20284;-69
2023/07/16 06:45:42;;;;;;;0.60;0.60;;;19.10;99.90;;;;;;5016090;28;20221;-69
2023/07/16 06:48:09;;;;;;;0.70;0.70;;;19.80;99.90;;;;;;5015658;28;20572;-69
2023/07/16 06:50:37;;;;;;;1.08;0.77;;;20.20;99.90;;;;;;5015873;28;20225;-69
2023/07/16 06:53:04;;;;;;;0.70;0.70;;;21.80;99.90;;;;;;5015240;28;20665;-70
2023/07/16 06:55:30;;;;;;;0.57;0.57;;;23.10;99.90;;;;;;5015678;28;20236;-69
2023/07/16 06:57:57;;;;;;;0.50;0.50;;;23.80;99.90;;;;;;5015708;28;20198;-69
2023/07/16 07:00:24;;;;;;;0.57;0.57;;;24.80;99.90;;;;;;5015694;28;20198;-69
2023/07/16 07:02:50;;;;;;;0.60;0.60;;;25.60;99.90;;;;;;5015570;28;20202;-69
2023/07/16 07:05:17;;;;;;;0.82;0.82;;;25.80;99.90;;;;;;5015597;28;20228;-69
2023/07/16 07:07:45;;;;;;;0.50;0.50;;;26.60;99.90;;;;;;5015300;28;20600;-69
2023/07/16 07:10:12;;;;;;;0.75;0.65;;;27.60;99.90;;;;;;5015249;28;20611;-69
2023/07/16 07:12:40;;;;;;;0.68;0.68;;;28.00;99.90;;;;;;5015466;28;20204;-69
2023/07/16 07:15:08;;;;;;;0.70;0.70;;;28.80;99.90;;;;;;5015128;28;20568;-69
2023/07/16 07:17:35;;;;;;;0.77;0.57;;;30.00;99.90;;;;;;5015228;28;20217;-69
2023/07/16 07:20:01;;;;;;;0.47;0.47;;;31.30;99.90;;;;;;5015384;28;20208;-69
2023/07/16 07:22:28;;;;;;;0.57;0.57;;;32.40;97.10;;;;;;5015336;28;20216;-69
2023/07/16 07:24:56;;;;;;;0.52;0.52;;;33.30;94.60;;;;;;5015153;28;20225;-70
2023/07/16 07:27:23;;;;;;;0.73;0.50;;;34.10;91.00;;;;;;5015194;28;20209;-70
2023/07/16 07:29:51;;;;;;;0.68;0.63;;;34.60;78.70;;;;;;5015112;28;20201;-69
2023/07/16 07:32:18;;;;;;;0.47;0.47;;;35.20;79.60;;;;;;5014809;28;20743;-70
2023/07/16 07:34:45;;;;;;;0.55;0.55;;;36.00;75.90;;;;;;5015024;28;20564;-70
2023/07/16 07:37:12;;;;;;;0.63;0.50;;;37.00;75.00;;;;;;5015043;28;20228;-70
2023/07/16 07:39:38;;;;;;;0.68;0.68;;;37.40;63.90;;;;;;5014934;28;20216;-70
2023/07/16 07:42:07;;;;;;;0.63;0.63;;;37.00;64.90;;;;;;5014829;28;20197;-70
2023/07/16 07:44:34;;;;;;;0.50;0.50;;;36.80;62.40;;;;;;5015044;28;20208;-70
2023/07/16 07:47:01;;;;;;;0.77;0.60;;;36.30;59.50;;;;;;5015734;28;20212;-70
2023/07/16 07:49:28;;;;;;;0.50;0.50;;;35.00;63.00;;;;;;5015591;28;20292;-71
2023/07/16 07:51:55;;;;;;;0.80;0.50;;;34.50;68.80;;;;;;5015087;28;20249;-71
2023/07/16 07:54:22;;;;;;;1.92;0.70;;;33.70;67.60;;;;;;5015763;28;20635;-70
2023/07/16 07:56:49;;;;;;;0.77;0.77;;;32.20;70.80;;;;;;5015776;28;20202;-69
2023/07/16 07:59:17;;;;;;;1.20;0.90;;;30.10;80.60;;;;;;5014884;28;20201;-69
2023/07/16 08:01:43;;;;;;;0.88;0.88;;;28.50;99.90;;;;;;5014965;28;20256;-71
2023/07/16 08:04:10;;;;;;;0.80;0.80;;;27.80;99.90;;;;;;5014399;28;20197;-71
2023/07/16 08:06:37;;;;;;;1.05;1.05;;;27.30;99.90;;;;;;5014109;28;20770;-70
2023/07/16 08:09:04;;;;;;;2.53;0.80;;;27.00;99.90;;;;;;5015210;28;20209;-70
2023/07/16 08:11:31;;;;;;;0.80;0.80;;;27.00;99.90;;;;;;5014667;28;20233;-71
2023/07/16 08:13:57;;;;;;;0.95;0.70;;;27.10;99.90;;;;;;5014648;28;20328;-69
2023/07/16 08:16:25;;;;;;;0.80;0.80;;;26.90;99.90;;;;;;5014308;28;20225;-69
2023/07/16 08:18:52;;;;;;;1.25;0.80;;;26.80;99.90;;;;;;5014065;28;20209;-70
2023/07/16 08:21:19;;;;;;;0.75;0.75;;;26.90;99.90;;;;;;5014253;28;20201;-70
2023/07/16 08:23:47;;;;;;;1.67;0.90;;;26.40;99.90;;;;;;5014219;28;20229;-70
2023/07/16 08:26:14;;;;;;;1.00;0.80;;;25.70;99.90;;;;;;5013885;28;20225;-69
2023/07/16 08:28:40;;;;;;;1.30;1.10;;;25.20;99.90;;;;;;5014046;28;20197;-69
2023/07/16 08:31:07;;;;;;;1.00;0.90;;;24.70;99.90;;;;;;5014073;28;20624;-70
2023/07/16 08:33:35;;;;;;;1.65;0.90;;;24.30;99.90;;;;;;5014256;28;20205;-70
2023/07/16 08:36:02;;;;;;;0.88;0.88;;;23.70;99.90;;;;;;5014027;28;20222;-70
2023/07/16 08:38:29;;;;;;;0.95;0.90;;;23.30;99.90;;;;;;5013879;28;20671;-70
2023/07/16 08:40:55;;;;;;;1.08;0.98;;;23.30;99.90;;;;;;5014642;28;20553;-70
2023/07/16 08:43:23;;;;;;;1.02;1.02;;;23.50;99.90;;;;;;5014048;28;20202;-69
2023/07/16 08:45:50;;;;;;;0.95;0.95;;;23.70;99.90;;;;;;5013931;28;20229;-69
2023/07/16 08:48:18;;;;;;;0.63;0.60;;;24.20;99.90;;;;;;5014097;28;20226;-69
2023/07/16 08:50:48;;;;;;;1.85;1.00;;;24.70;99.90;;;;;;5013681;28;20224;-69
2023/07/16 08:53:16;;;;;;;0.60;0.60;;;24.60;99.90;;;;;;5014021;28;20185;-70
2023/07/16 08:55:45;;;;;;;0.70;0.70;;;25.00;99.90;;;;;;5013472;28;20719;-69
2023/07/16 08:58:14;;;;;;;0.70;0.70;;;25.30;99.90;;;;;;5013758;28;20205;-69
2023/07/16 09:00:42;;;;;;;0.80;0.80;;;25.60;99.90;;;;;;5013840;28;20201;-69
2023/07/16 09:03:09;;;;;;;0.90;0.90;;;25.70;99.90;;;;;;5013691;28;20204;-69
2023/07/16 09:05:36;;;;;;;0.65;0.65;;;25.60;99.90;;;;;;5013383;28;20226;-70
2023/07/16 09:08:05;;;;;;;0.80;0.80;;;25.80;99.90;;;;;;5013608;28;20210;-70
2023/07/16 09:10:31;;;;;;;1.00;1.00;;;26.10;99.90;;;;;;5013352;28;20661;-70
2023/07/16 09:12:59;;;;;;;0.90;0.90;;;26.00;99.90;;;;;;5013601;28;20232;-70
2023/07/16 09:15:29;;;;;;;2.42;0.88;;;26.10;99.90;;;;;;5013832;28;20592;-71
2023/07/16 09:17:56;;;;;;;0.60;0.60;;;26.00;99.90;;;;;;5017152;28;20213;-71
2023/07/16 09:20:23;;;;;;;0.65;0.65;;;26.10;99.90;;;;;;5017382;28;20695;-70
2023/07/16 09:22:50;;;;;;;0.70;0.70;;;26.10;99.90;;;;;;5017433;28;20207;-70
2023/07/16 09:25:18;;;;;;;0.90;0.90;;;26.20;99.90;;;;;;5017582;28;20228;-70
2023/07/16 09:27:49;;;;;;;0.93;0.93;;;26.00;99.90;;;;;;5017159;28;20691;-70
2023/07/16 09:30:16;;;;;;;1.67;0.80;;;25.60;99.90;;;;;;5017806;28;20182;-70
2023/07/16 09:32:43;;;;;;;0.80;0.80;;;25.60;99.90;;;;;;5017506;28;20228;-69
2023/07/16 09:35:11;;;;;;;0.90;0.90;;;25.60;99.90;;;;;;5017711;28;20311;-69
2023/07/16 09:37:38;;;;;;;0.80;0.80;;;25.80;99.90;;;;;;5017477;28;20204;-73
2023/07/16 09:40:08;;;;;;;0.68;0.68;;;25.80;99.90;;;;;;5017483;28;20236;-74
2023/07/16 09:42:38;;;;;;;0.80;0.80;;;25.70;99.90;;;;;;5017766;28;20247;-74
2023/07/16 09:45:07;;;;;;;0.70;0.70;;;25.70;99.90;;;;;;5018099;28;20221;-71
2023/07/16 09:47:33;;;;;;;0.73;0.73;;;25.90;99.90;;;;;;5017670;28;20237;-70
2023/07/16 09:50:00;;;;;;;1.45;1.10;;;26.00;99.90;;;;;;5017676;28;20201;-69
2023/07/16 09:52:28;;;;;;;1.13;1.13;;;25.80;99.90;;;;;;5017370;28;20213;-69
2023/07/16 09:54:57;;;;;;;1.05;0.90;;;25.50;99.90;;;;;;5017531;28;20221;-70
2023/07/16 09:57:26;;;;;;;1.20;0.88;;;25.70;99.90;;;;;;5017403;28;20200;-70
2023/07/16 09:59:57;;;;;;;1.00;1.00;;;25.80;99.90;;;;;;5017237;28;20205;-69
2023/07/16 10:02:24;;;;;;;0.80;0.80;;;25.60;99.90;;;;;;5017107;28;20186;-70
2023/07/16 10:04:53;;;;;;;0.70;0.70;;;25.60;99.90;;;;;;5017163;28;20300;-70
2023/07/16 10:07:22;;;;;;;1.15;1.10;;;25.50;99.90;;;;;;5017382;28;20205;-70
2023/07/16 10:09:56;;;;;;;1.02;1.02;;;25.30;99.90;;;;;;5017510;28;20206;-71
2023/07/16 10:12:24;;;;;;;0.82;0.82;;;25.30;99.90;;;;;;5017246;28;20260;-70
2023/07/16 10:14:56;;;;;;;0.88;0.88;;;25.50;99.90;;;;;;5016885;28;20229;-70
2023/07/16 10:17:25;;;;;;;0.90;0.90;;;25.80;99.90;;;;;;5016815;28;20214;-70
2023/07/16 10:19:57;;;;;;;0.80;0.80;;;26.00;99.90;;;;;;5016420;28;20193;-70
2023/07/16 10:22:36;;;;;;;0.70;0.70;;;26.00;99.90;;;;;;5016519;28;20193;-69
2023/07/16 10:25:04;;;;;;;0.73;0.73;;;25.80;99.90;;;;;;5016329;28;20241;-69
2023/07/16 10:27:32;;;;;;;0.75;0.75;;;25.80;99.90;;;;;;5015920;28;20201;-70
2023/07/16 10:30:03;;;;;;;0.80;0.80;;;26.10;99.90;;;;;;5016042;28;20297;-70
2023/07/16 10:32:31;;;;;;;0.90;0.90;;;26.30;99.90;;;;;;5016306;28;20210;-70
2023/07/16 10:34:58;;;;;;;1.02;1.02;;;26.30;99.90;;;;;;5015771;28;20229;-69
2023/07/16 10:37:26;;;;;;;1.08;1.08;;;26.20;99.90;;;;;;5016261;28;20225;-70
2023/07/16 10:39:54;;;;;;;1.08;1.08;;;26.20;99.90;;;;;;5016271;28;20236;-70
2023/07/16 10:42:22;;;;;;;0.70;0.70;;;26.30;99.90;;;;;;5016773;28;20202;-69
2023/07/16 10:44:52;;;;;;;0.70;0.70;;;26.20;99.90;;;;;;5015793;28;20229;-71
2023/07/16 10:47:23;;;;;;;0.75;0.75;;;26.20;99.90;;;;;;5015827;28;20537;-72
2023/07/16 10:49:51;;;;;;;0.82;0.82;;;25.90;99.90;;;;;;5015924;28;20196;-72
2023/07/16 10:52:18;;;;;;;0.90;0.90;;;25.80;99.90;;;;;;5015865;28;20272;-72
2023/07/16 10:54:45;;;;;;;0.98;0.98;;;25.70;99.90;;;;;;5015910;28;20229;-71
2023/07/16 10:57:12;;;;;;;1.15;0.80;;;25.50;99.90;;;;;;5015827;28;20202;-72
2023/07/16 10:59:40;;;;;;;0.73;0.73;;;25.40;99.90;;;;;;5015926;28;20243;-71
2023/07/16 11:02:11;;;;;;;0.70;0.70;;;25.20;99.90;;;;;;5015685;28;20213;-71
2023/07/16 11:04:39;;;;;;;0.80;0.80;;;25.10;99.90;;;;;;5015765;28;20236;-71
2023/07/16 11:07:08;;;;;;;1.05;0.98;;;25.30;99.90;;;;;;5015649;28;20201;-71
2023/07/16 11:09:36;;;;;;;0.80;0.80;;;25.50;99.90;;;;;;5015661;28;20606;-71
2023/07/16 11:12:09;;;;;;;0.70;0.70;;;25.80;99.90;;;;;;5015118;28;20716;-71
2023/07/16 11:14:36;;;;;;;1.00;0.82;;;25.90;99.90;;;;;;5015432;28;20206;-71
2023/07/16 11:17:08;;;;;;;0.77;0.70;;;26.00;99.90;;;;;;5015354;28;20212;-71
2023/07/16 11:19:35;;;;;;;0.82;0.82;;;25.90;99.90;;;;;;5015378;28;20190;-70
2023/07/16 11:22:05;;;;;;;0.95;0.95;;;25.80;99.90;;;;;;5015053;28;20731;-70
2023/07/16 11:24:38;;;;;;;0.98;0.73;;;25.70;99.90;;;;;;5015230;28;20205;-70
2023/07/16 11:27:06;;;;;;;0.95;0.80;;;25.70;99.90;;;;;;5015452;28;20181;-70
2023/07/16 11:29:36;;;;;;;1.20;0.90;;;25.80;99.90;;;;;;5014889;28;20205;-70
2023/07/16 11:32:03;;;;;;;0.70;0.70;;;26.00;99.90;;;;;;5015115;28;20245;-70
2023/07/16 11:34:29;;;;;;;0.98;0.98;;;26.10;99.90;;;;;;5014719;28;20604;-70
2023/07/16 11:36:56;;;;;;;0.85;0.85;;;26.30;99.90;;;;;;5015869;28;20205;-70
2023/07/16 11:39:28;;;;;;;1.00;1.00;;;26.40;99.90;;;;;;5016258;28;20208;-70
2023/07/16 11:41:57;;;;;;;0.90;0.90;;;26.70;99.90;;;;;;5016946;28;20178;-70
2023/07/16 11:44:23;;;;;;;0.80;0.80;;;26.70;99.90;;;;;;5016991;28;20237;-70
2023/07/16 11:46:51;;;;;;;0.80;0.80;;;26.80;99.90;;;;;;5017128;28;20205;-70
2023/07/16 11:49:18;;;;;;;1.27;0.80;;;26.80;99.90;;;;;;5017514;28;20205;-70
2023/07/16 11:51:44;;;;;;;0.70;0.70;;;26.70;99.90;;;;;;5017407;28;20181;-70
2023/07/16 11:54:11;;;;;;;0.75;0.70;;;26.40;99.90;;;;;;5017072;28;20210;-70
2023/07/16 11:56:39;;;;;;;1.10;1.00;;;26.10;99.90;;;;;;5016979;28;20248;-69
2023/07/16 11:59:06;;;;;;;0.80;0.80;;;26.00;99.90;;;;;;5014878;28;20208;-69
2023/07/16 12:01:33;;;;;;;0.93;0.93;;;26.00;99.90;;;;;;5014675;28;20218;-69
2023/07/16 12:03:59;;;;;;;1.30;0.90;;;26.00;99.90;;;;;;5015170;28;20264;-69
2023/07/16 12:06:26;;;;;;;1.27;1.17;;;26.00;99.90;;;;;;5015401;28;20217;-69
2023/07/16 12:08:54;;;;;;;0.90;0.90;;;26.10;99.90;;;;;;5014916;28;20213;-69
2023/07/16 12:11:21;;;;;;;1.10;1.10;;;26.20;99.90;;;;;;5014652;28;20209;-69
2023/07/16 12:13:49;;;;;;;0.98;0.98;;;26.40;99.90;;;;;;5014351;28;20217;-70
2023/07/16 12:16:16;;;;;;;0.80;0.80;;;26.60;99.90;;;;;;5014004;28;20713;-70
2023/07/16 12:18:43;;;;;;;0.75;0.75;;;26.80;99.90;;;;;;5013927;28;20209;-70
2023/07/16 12:21:09;;;;;;;0.95;0.95;;;26.90;99.90;;;;;;5014231;28;20255;-70
2023/07/16 12:23:36;;;;;;;1.00;1.00;;;27.00;99.90;;;;;;5014154;28;20205;-70
2023/07/16 12:26:03;;;;;;;0.90;0.90;;;27.30;99.90;;;;;;5014238;28;20224;-70
2023/07/16 12:28:29;;;;;;;1.63;0.98;;;27.40;99.90;;;;;;5014002;28;20205;-70
2023/07/16 12:30:57;;;;;;;1.02;0.90;;;27.30;99.90;;;;;;5014055;28;20197;-70
2023/07/16 12:33:24;;;;;;;1.05;1.05;;;27.20;99.90;;;;;;5014337;28;20221;-70
2023/07/16 12:35:51;;;;;;;0.70;0.70;;;27.20;99.90;;;;;;5013648;28;20755;-70
2023/07/16 12:38:17;;;;;;;0.73;0.73;;;27.20;99.90;;;;;;5013994;28;20228;-70
2023/07/16 12:40:44;;;;;;;0.75;0.75;;;27.30;99.90;;;;;;5013898;28;20216;-70
2023/07/16 12:43:11;;;;;;;1.05;1.05;;;27.30;99.90;;;;;;5013607;28;20249;-70
2023/07/16 12:45:37;;;;;;;0.98;0.95;;;27.20;99.90;;;;;;5013774;28;20228;-70
2023/07/16 12:48:06;;;;;;;0.77;0.77;;;27.00;99.90;;;;;;5013954;28;20205;-71
2023/07/16 12:50:33;;;;;;;0.98;0.98;;;26.90;99.90;;;;;;5014332;28;20205;-71
2023/07/16 12:53:00;;;;;;;0.95;0.95;;;27.00;99.90;;;;;;5013610;28;20221;-71
2023/07/16 12:55:26;;;;;;;1.10;1.10;;;26.90;99.90;;;;;;5013381;28;20592;-72
2023/07/16 12:57:53;;;;;;;0.85;0.85;;;27.00;99.90;;;;;;5013697;28;20556;-72
2023/07/16 13:00:20;;;;;;;0.90;0.90;;;27.30;99.90;;;;;;5013735;28;20201;-72
2023/07/16 13:02:47;;;;;;;0.95;0.80;;;27.50;99.90;;;;;;5014187;28;20209;-71
2023/07/16 13:05:15;;;;;;;1.00;1.00;;;27.20;99.90;;;;;;5013652;28;20225;-71
2023/07/16 13:07:42;;;;;;;0.70;0.70;;;26.90;99.90;;;;;;5013348;28;20202;-71
2023/07/16 13:10:10;;;;;;;0.70;0.70;;;26.90;99.90;;;;;;5013325;28;20684;-71
2023/07/16 13:12:37;;;;;;;1.00;1.00;;;27.00;99.90;;;;;;5014456;28;20230;-71
2023/07/16 13:15:04;;;;;;;0.90;0.90;;;27.20;99.90;;;;;;5014015;28;20221;-71
2023/07/16 13:17:31;;;;;;;0.82;0.82;;;27.10;99.90;;;;;;5013500;28;20214;-71
2023/07/16 13:19:58;;;;;;;1.00;1.00;;;27.10;99.90;;;;;;5013343;28;20634;-71
2023/07/16 13:22:26;;;;;;;1.10;1.10;;;27.10;99.90;;;;;;5013761;28;20205;-71
2023/07/16 13:24:52;;;;;;;0.98;0.98;;;27.00;99.90;;;;;;5021050;28;20222;-71
2023/07/16 13:27:23;;;;;;;0.95;0.90;;;27.00;99.90;;;;;;5024818;28;20210;-71
2023/07/16 13:29:50;;;;;;;1.70;1.08;;;27.00;99.90;;;;;;5023659;28;20277;-71
2023/07/16 13:32:17;;;;;;;0.95;0.95;;;26.90;99.90;;;;;;5017071;28;20201;-71
2023/07/16 13:34:43;;;;;;;1.17;1.02;;;27.00;99.90;;;;;;5013290;28;20221;-71
2023/07/16 13:37:10;;;;;;;0.90;0.90;;;27.00;99.90;;;;;;5013045;28;20668;-71
2023/07/16 13:39:38;;;;;;;0.90;0.90;;;27.00;99.90;;;;;;5013585;28;20236;-72
2023/07/16 13:42:06;;;;;;;1.00;1.00;;;27.20;99.90;;;;;;5013369;28;20205;-71
2023/07/16 13:44:33;;;;;;;2.78;1.17;;;27.10;99.90;;;;;;5013952;28;20232;-70
2023/07/16 13:47:00;;;;;;;0.88;0.88;;;27.00;99.90;;;;;;5014577;28;20217;-70
2023/07/16 13:49:27;;;;;;;1.08;1.08;;;26.90;99.90;;;;;;5014876;28;20209;-71
2023/07/16 13:51:53;;;;;;;0.95;0.95;;;26.90;99.90;;;;;;5013585;28;20213;-71
2023/07/16 13:54:20;;;;;;;1.10;1.10;;;27.00;99.90;;;;;;5013070;28;20226;-71
2023/07/16 13:56:49;;;;;;;0.70;0.70;;;27.00;99.90;;;;;;5012859;28;20746;-71
2023/07/16 13:59:15;;;;;;;0.98;0.98;;;27.00;99.90;;;;;;5013198;28;20206;-71
2023/07/16 14:01:42;;;;;;;0.95;0.95;;;27.10;99.90;;;;;;5013216;28;20233;-71
2023/07/16 14:04:09;;;;;;;1.67;1.23;;;27.00;99.90;;;;;;5015507;28;20208;-71
2023/07/16 14:06:36;;;;;;;1.15;1.15;;;26.90;99.90;;;;;;5016348;28;20593;-71
2023/07/16 14:09:04;;;;;;;1.00;0.95;;;26.90;99.90;;;;;;5016695;28;20209;-72
2023/07/16 14:11:31;;;;;;;0.90;0.90;;;26.90;99.90;;;;;;5016606;28;20205;-71
2023/07/16 14:14:00;;;;;;;0.80;0.80;;;26.80;99.90;;;;;;5016296;28;20697;-71
2023/07/16 14:16:27;;;;;;;1.00;1.00;;;26.70;99.90;;;;;;5016781;28;20257;-71
2023/07/16 14:18:54;;;;;;;0.80;0.80;;;26.50;99.90;;;;;;5018828;28;20206;-69
2023/07/16 14:21:21;;;;;;;1.00;1.00;;;26.30;99.90;;;;;;5019917;28;20229;-71
2023/07/16 14:23:48;;;;;;;1.00;1.00;;;26.00;99.90;;;;;;5020636;28;20202;-72
2023/07/16 14:26:14;;;;;;;1.17;1.10;;;25.70;99.90;;;;;;5019671;28;20224;-71
2023/07/16 14:28:41;;;;;;;0.90;0.90;;;25.50;99.90;;;;;;5018847;28;20209;-70
2023/07/16 14:31:09;;;;;;;1.15;1.15;;;25.40;99.90;;;;;;5018537;28;20201;-69
2023/07/16 14:33:37;;;;;;;0.90;0.90;;;25.30;99.90;;;;;;5019171;28;20217;-68
2023/07/16 14:36:04;;;;;;;1.17;1.00;;;25.10;99.90;;;;;;5018619;28;20643;-67
2023/07/16 14:38:31;;;;;;;1.17;1.13;;;25.00;99.90;;;;;;5016547;28;20205;-68
2023/07/16 14:40:58;;;;;;;1.23;1.13;;;24.90;99.90;;;;;;5016334;28;20217;-68
2023/07/16 14:43:24;;;;;;;1.02;1.02;;;24.80;99.90;;;;;;5016958;28;20206;-68
2023/07/16 14:45:51;;;;;;;1.15;1.15;;;24.80;99.90;;;;;;5017943;28;20285;-69
2023/07/16 14:48:20;;;;;;;0.88;0.88;;;24.80;99.90;;;;;;5018591;28;20283;-69
2023/07/16 14:50:49;;;;;;;0.98;0.98;;;24.70;99.90;;;;;;5019458;28;20296;-70
2023/07/16 14:53:16;;;;;;;1.25;1.25;;;24.70;99.90;;;;;;5019784;28;20221;-70
2023/07/16 14:55:47;;;;;;;1.10;1.10;;;24.70;99.90;;;;;;5019477;28;20221;-70
2023/07/16 14:58:14;;;;;;;1.38;1.38;;;24.70;99.90;;;;;;5021071;28;20185;-70
2023/07/16 15:00:41;;;;;;;1.40;1.25;;;24.70;99.90;;;;;;5022465;28;20205;-70
2023/07/16 15:03:07;;;;;;;1.20;1.20;;;24.70;99.90;;;;;;5021308;28;20197;-71
2023/07/16 15:05:35;;;;;;;1.10;1.10;;;24.80;99.90;;;;;;5019599;28;20221;-70
2023/07/16 15:08:02;;;;;;;1.40;1.40;;;24.90;99.90;;;;;;5019251;28;20209;-70
2023/07/16 15:10:29;;;;;;;1.00;1.00;;;25.00;99.90;;;;;;5018787;28;20255;-70
2023/07/16 15:12:56;;;;;;;1.65;1.55;;;25.10;99.90;;;;;;5019110;28;20220;-69
2023/07/16 15:15:23;;;;;;;1.10;1.10;;;25.20;99.90;;;;;;5018951;28;20289;-69
2023/07/16 15:17:49;;;;;;;1.17;1.15;;;25.30;99.90;;;;;;5018061;28;20209;-69
2023/07/16 15:20:16;;;;;;;1.38;1.27;;;25.30;99.90;;;;;;5015625;28;20212;-69
2023/07/16 15:22:44;;;;;;;1.20;1.10;;;25.30;99.90;;;;;;5015278;28;20231;-68
2023/07/16 15:25:12;;;;;;;1.23;1.20;;;25.30;99.90;;;;;;5014773;28;20229;-68
2023/07/16 15:27:38;;;;;;;1.00;1.00;;;25.20;99.90;;;;;;5015137;28;20209;-69
2023/07/16 15:30:07;;;;;;;1.35;1.30;;;25.10;99.90;;;;;;5015067;28;20206;-69
2023/07/16 15:32:34;;;;;;;1.00;1.00;;;25.20;99.90;;;;;;5015060;28;20190;-70
2023/07/16 15:35:00;;;;;;;1.35;1.35;;;25.30;99.90;;;;;;5014886;28;20233;-70
2023/07/16 15:37:27;;;;;;;1.17;1.17;;;25.30;99.90;;;;;;5014575;28;20668;-70
2023/07/16 15:39:57;;;;;;;1.38;1.38;;;25.30;99.90;;;;;;5014924;28;20182;-71
2023/07/16 15:42:26;;;;;;;1.40;1.40;;;25.40;99.90;;;;;;5014883;28;20190;-70
2023/07/16 15:44:52;;;;;;;1.42;1.25;;;25.50;99.90;;;;;;5014556;28;20800;-70
2023/07/16 15:47:19;;;;;;;1.40;1.38;;;25.60;99.90;;;;;;5015020;28;20206;-70
2023/07/16 15:49:46;;;;;;;1.50;1.50;;;25.70;99.90;;;;;;5014512;28;20673;-70
2023/07/16 15:52:12;;;;;;;1.50;1.40;;;25.80;99.90;;;;;;5014700;28;20228;-69
2023/07/16 15:54:39;;;;;;;1.08;1.08;;;25.90;99.90;;;;;;5014184;28;20623;-70
2023/07/16 15:57:07;;;;;;;1.10;1.10;;;26.00;99.90;;;;;;5014670;28;20202;-70
2023/07/16 15:59:34;;;;;;;1.10;1.10;;;26.00;99.90;;;;;;5014531;28;20205;-70
2023/07/16 16:02:01;;;;;;;1.27;1.25;;;26.00;99.90;;;;;;5014531;28;20197;-70
2023/07/16 16:04:27;;;;;;;1.08;1.08;;;26.00;99.90;;;;;;5014103;28;20664;-70
2023/07/16 16:06:54;;;;;;;1.15;1.15;;;26.00;99.90;;;;;;5014543;28;20264;-69
2023/07/16 16:09:21;;;;;;;1.20;1.20;;;26.00;99.90;;;;;;5014441;28;20208;-71
2023/07/16 16:11:48;;;;;;;1.35;1.33;;;25.90;99.90;;;;;;5014451;28;20201;-70
2023/07/16 16:14:16;;;;;;;1.20;1.20;;;25.90;99.90;;;;;;5014304;28;20221;-69
2023/07/16 16:16:43;;;;;;;1.30;1.30;;;25.80;99.90;;;;;;5014289;28;20247;-70
2023/07/16 16:19:12;;;;;;;1.13;1.02;;;25.80;99.90;;;;;;5013959;28;20213;-70
2023/07/16 16:21:38;;;;;;;1.02;1.02;;;25.70;99.90;;;;;;5013960;28;20687;-70
2023/07/16 16:24:05;;;;;;;1.00;1.00;;;25.60;99.90;;;;;;5014288;28;20284;-70
2023/07/16 16:26:32;;;;;;;0.88;0.88;;;25.50;99.90;;;;;;5013154;28;20731;-71
2023/07/16 16:28:59;;;;;;;2.28;1.00;;;25.40;99.90;;;;;;5014445;28;20213;-70
2023/07/16 16:31:27;;;;;;;1.17;1.17;;;25.40;99.90;;;;;;5014088;28;20202;-70
2023/07/16 16:33:54;;;;;;;1.10;1.10;;;25.40;99.90;;;;;;5013972;28;20276;-71
2023/07/16 16:36:20;;;;;;;0.90;0.90;;;25.40;99.90;;;;;;5013950;28;20275;-69
2023/07/16 16:38:47;;;;;;;1.23;1.23;;;25.40;99.90;;;;;;5014055;28;20202;-70
2023/07/16 16:41:14;;;;;;;1.10;1.10;;;25.40;99.90;;;;;;5014008;28;20275;-70
2023/07/16 16:43:40;;;;;;;1.02;1.02;;;25.40;99.90;;;;;;5013890;28;20201;-71
2023/07/16 16:46:08;;;;;;;0.95;0.95;;;25.30;99.90;;;;;;5013864;28;20306;-71
2023/07/16 16:48:38;;;;;;;0.90;0.90;;;25.30;99.90;;;;;;5013580;28;20197;-70
2023/07/16 16:51:04;;;;;;;1.25;1.25;;;25.20;99.90;;;;;;5013743;28;20205;-66
2023/07/16 16:53:31;;;;;;;1.20;1.20;;;25.10;99.90;;;;;;5013681;28;20217;-68
2023/07/16 16:55:58;;;;;;;1.45;1.45;;;24.90;99.90;;;;;;5013746;28;20250;-69
2023/07/16 16:58:25;;;;;;;1.30;1.30;;;24.70;99.90;;;;;;5013583;28;20201;-68
2023/07/16 17:00:55;;;;;;;1.30;1.30;;;24.70;99.90;;;;;;5013638;28;20206;-69
2023/07/16 17:03:23;;;;;;;1.52;1.52;;;24.60;99.90;;;;;;5013717;28;20185;-70
2023/07/16 17:05:55;;;;;;;1.10;1.10;;;24.60;99.90;;;;;;5014057;28;20253;-71
2023/07/16 17:08:22;;;;;;;1.00;1.00;;;24.50;99.90;;;;;;5013752;28;20185;-68
2023/07/16 17:10:50;;;;;;;1.30;1.17;;;24.50;99.90;;;;;;5013642;28;20201;-66
2023/07/16 17:13:16;;;;;;;1.10;1.10;;;24.50;99.90;;;;;;5013310;28;20657;-68
2023/07/16 17:15:45;;;;;;;1.10;1.10;;;24.30;99.90;;;;;;5013703;28;20229;-70
2023/07/16 17:18:12;;;;;;;1.20;1.20;;;24.30;99.90;;;;;;5013238;28;20577;-71
2023/07/16 17:20:39;;;;;;;1.10;1.10;;;24.20;99.90;;;;;;5013478;28;20691;-71
2023/07/16 17:23:07;;;;;;;1.00;1.00;;;24.20;99.90;;;;;;5013569;28;20207;-69
2023/07/16 17:25:34;;;;;;;1.15;1.15;;;24.10;99.90;;;;;;5015101;28;20229;-72
2023/07/16 17:28:00;;;;;;;0.93;0.93;;;24.10;99.90;;;;;;5015602;28;20209;-71
2023/07/16 17:30:27;;;;;;;1.38;1.10;;;24.00;99.90;;;;;;5017714;28;20197;-70
2023/07/16 17:32:54;;;;;;;1.00;1.00;;;23.90;99.90;;;;;;5016138;28;20201;-69
2023/07/16 17:35:20;;;;;;;1.00;1.00;;;23.90;99.90;;;;;;5013518;28;20237;-71
2023/07/16 17:37:47;;;;;;;0.90;0.90;;;23.90;99.90;;;;;;5015052;28;20677;-71
2023/07/16 17:40:18;;;;;;;1.00;1.00;;;23.90;99.90;;;;;;5017341;28;20225;-70
2023/07/16 17:42:45;;;;;;;1.17;1.17;;;23.90;99.90;;;;;;5017373;28;20225;-71
2023/07/16 17:45:11;;;;;;;0.90;0.90;;;23.90;99.90;;;;;;5017283;28;20221;-71
2023/07/16 17:47:38;;;;;;;1.15;1.13;;;23.90;99.90;;;;;;5017219;28;20205;-71
2023/07/16 17:50:06;;;;;;;1.10;1.10;;;24.00;99.90;;;;;;5017060;28;20201;-70
2023/07/16 17:52:32;;;;;;;1.15;1.15;;;23.90;99.90;;;;;;5016928;28;20223;-69
2023/07/16 17:54:59;;;;;;;0.88;0.88;;;23.80;99.90;;;;;;5016853;28;20229;-70
2023/07/16 17:57:27;;;;;;;1.00;1.00;;;23.70;99.90;;;;;;5016869;28;20576;-71
2023/07/16 17:59:54;;;;;;;1.20;1.20;;;23.60;99.90;;;;;;5017092;28;20205;-71
2023/07/16 18:02:21;;;;;;;1.10;1.10;;;23.50;99.90;;;;;;5016670;28;20688;-68
2023/07/16 18:04:52;;;;;;;1.33;1.33;;;23.30;99.90;;;;;;5017062;28;20228;-68
2023/07/16 18:07:21;;;;;;;1.73;1.73;;;23.20;99.90;;;;;;5016837;28;20589;-68
2023/07/16 18:09:49;;;;;;;1.67;1.58;;;23.00;99.90;;;;;;5016751;28;20201;-68
2023/07/16 18:12:16;;;;;;;2.17;2.08;;;23.00;99.90;;;;;;5017014;28;20263;-68
2023/07/16 18:14:44;;;;;;;2.47;2.35;;;22.90;99.90;;;;;;5016705;28;20229;-69
2023/07/16 18:17:11;;;;;;;1.65;1.65;;;22.80;99.90;;;;;;5016359;28;20653;-68
2023/07/16 18:19:38;;;;;;;1.98;1.88;;;22.80;99.90;;;;;;5016500;28;20209;-68
2023/07/16 18:22:05;;;;;;;1.70;1.70;;;22.70;99.90;;;;;;5016191;28;20206;-69
2023/07/16 18:24:32;;;;;;;1.75;1.73;;;22.60;99.90;;;;;;5016398;28;20209;-70
2023/07/16 18:26:58;;;;;;;1.90;1.90;;;22.50;99.90;;;;;;5016613;28;20201;-69
2023/07/16 18:29:25;;;;;;;1.58;1.58;;;22.50;99.90;;;;;;5016751;28;20224;-68
2023/07/16 18:31:53;;;;;;;1.80;1.80;;;22.40;99.90;;;;;;5016355;28;20202;-69
2023/07/16 18:34:20;;;;;;;2.38;2.28;;;22.30;99.90;;;;;;5016502;28;20222;-70
2023/07/16 18:36:47;;;;;;;1.85;1.75;;;22.20;99.90;;;;;;5016793;28;20202;-68
2023/07/16 18:39:15;;;;;;;1.70;1.70;;;22.10;99.90;;;;;;5016181;28;20300;-69
2023/07/16 18:41:42;;;;;;;1.45;1.45;;;22.00;99.90;;;;;;5016248;28;20260;-69
2023/07/16 18:44:09;;;;;;;1.70;1.63;;;22.00;99.90;;;;;;5015888;28;20556;-68
2023/07/16 18:46:39;;;;;;;1.40;1.40;;;21.90;99.90;;;;;;5015950;28;20249;-68
2023/07/16 18:49:08;;;;;;;1.42;1.42;;;21.80;99.90;;;;;;5015988;28;20201;-68
2023/07/16 18:51:35;;;;;;;1.58;1.58;;;21.80;99.90;;;;;;5016383;28;20229;-69
2023/07/16 18:54:02;;;;;;;1.73;1.73;;;21.70;99.90;;;;;;5016094;28;20650;-68
2023/07/16 18:56:29;;;;;;;1.80;1.70;;;21.60;99.90;;;;;;5015770;28;20720;-67
2023/07/16 18:58:56;;;;;;;1.80;1.80;;;21.40;99.90;;;;;;5015791;28;20205;-69
2023/07/16 19:01:22;;;;;;;1.70;1.60;;;21.30;99.90;;;;;;5016118;28;20202;-69
2023/07/16 19:03:50;;;;;;;1.80;1.70;;;21.20;99.90;;;;;;5015943;28;20204;-69